This is the latest recevied weather packets stored in our database for station/object F6BIJ-13. If no packets are shown the sender has not sent any weather packets the latest 10 day(s).
| Time | Temp. | Humidity | Pressure | Rain* | Wind** | Luminosity | Snow |
|---|---|---|---|---|---|---|---|
| 1787390676 | 21.67° C | 70% | 1019 hPa | 0 mm | - | - | - |
| 1787390316 | 21.11° C | 71% | 1019 hPa | 0 mm | - | - | - |
| 1787389956 | 21.67° C | 70% | 1019 hPa | 0 mm | - | - | - |
| 1787389596 | 21.11° C | 74% | 1019 hPa | 0 mm | - | - | - |
| 1787389237 | 22.22° C | 71% | 1019 hPa | 0 mm | - | - | - |
| 1787388876 | 20.56° C | 72% | 1019 hPa | 0 mm | - | - | - |
| 1787388516 | 20.56° C | 77% | 1019 hPa | 0 mm | - | - | - |
| 1787388157 | 20° C | 75% | 1019 hPa | 0 mm | - | - | - |
| 1787387797 | 20° C | 77% | 1019 hPa | 0 mm | - | - | - |
| 1787387437 | 21.11° C | 73% | 1019 hPa | 0 mm | - | - | - |
| 1787387076 | 21.11° C | 73% | 1019 hPa | 0 mm | - | - | - |
| 1787386716 | 19.44° C | 81% | 1019 hPa | 0 mm | - | - | - |
| 1787386356 | 20° C | 73% | 1019 hPa | 0 mm | - | - | - |
| 1787385997 | 18.89° C | 78% | 1019 hPa | 0 mm | - | - | - |
| 1787385637 | 20.56° C | 72% | 1019 hPa | 0 mm | - | - | - |
| 1787385276 | 20° C | 77% | 1019 hPa | 0 mm | - | - | - |
| 1787384917 | 18.33° C | 81% | 1019 hPa | 0 mm | - | - | - |
| 1787384557 | 18.33° C | 82% | 1019 hPa | 0 mm | - | - | - |
| 1787384196 | 18.33° C | 84% | 1019 hPa | 0 mm | - | - | - |
| 1787383837 | 18.33° C | 83% | 1019 hPa | 0 mm | - | - | - |
| 1787383476 | 16.67° C | 88% | 1019 hPa | 0 mm | - | - | - |
| 1787383116 | 16.67° C | 89% | 1019 hPa | 0 mm | - | - | - |
| 1787382756 | 16.11° C | 89% | 1019 hPa | 0 mm | - | - | - |
| 1787382396 | 16.67° C | 89% | 1019 hPa | 0 mm | - | - | - |
| 1787382037 | 16.11° C | 90% | 1019 hPa | 0 mm | - | - | - |
* Rain latest 24 hours (hover to see other rain measurements)
** Current wind speed in m/s (hover to see current wind gust speed)